Time;durP1;ratioP1;P1;durP2;ratioP2;P2;SDS_P1;SDS_P2;PMS_P1;PMS_P2;Temp;Humidity;BMP_temperature;BMP_pressure;BME280_temperature;BME280_humidity;BME280_pressure;Samples;Min_cycle;Max_cycle;Signal;HPM_P1;HPM_P2
2022/03/06 00:02:14;;;;;;;45.78;21.98;;;4.00;99.90;;;;;;5017322;28;20293;-68
2022/03/06 00:04:40;;;;;;;42.80;21.65;;;3.90;99.90;;;;;;5016865;28;20030;-68
2022/03/06 00:07:06;;;;;;;49.05;23.02;;;3.80;99.90;;;;;;4999681;28;20041;-69
2022/03/06 00:09:32;;;;;;;45.40;22.00;;;3.80;99.90;;;;;;4999621;28;20029;-68
2022/03/06 00:11:58;;;;;;;44.95;21.85;;;3.70;99.90;;;;;;5015982;28;20399;-68
2022/03/06 00:14:24;;;;;;;49.15;22.92;;;3.70;99.90;;;;;;5016616;28;20034;-68
2022/03/06 00:16:52;;;;;;;49.33;23.83;;;3.70;99.90;;;;;;5017242;28;20034;-68
2022/03/06 00:19:18;;;;;;;46.53;22.83;;;3.60;99.90;;;;;;5016572;28;20044;-67
2022/03/06 00:21:45;;;;;;;46.42;22.17;;;3.60;99.90;;;;;;5017162;28;20370;-67
2022/03/06 00:24:11;;;;;;;47.88;22.38;;;3.50;99.90;;;;;;5015753;28;20041;-67
2022/03/06 00:26:37;;;;;;;49.83;23.02;;;3.40;99.90;;;;;;5015847;28;20022;-68
2022/03/06 00:29:04;;;;;;;48.65;23.73;;;3.30;99.90;;;;;;5016560;28;20037;-68
2022/03/06 00:31:29;;;;;;;49.67;22.95;;;3.30;99.90;;;;;;5016573;28;20018;-68
2022/03/06 00:33:55;;;;;;;47.13;21.65;;;3.40;99.90;;;;;;5015765;28;20045;-68
2022/03/06 00:36:22;;;;;;;47.45;22.00;;;3.50;99.90;;;;;;5016595;28;20354;-68
2022/03/06 00:38:47;;;;;;;49.25;22.80;;;3.40;99.90;;;;;;5016302;28;20045;-68
2022/03/06 00:41:15;;;;;;;44.35;21.38;;;3.40;99.90;;;;;;5016497;28;20532;-68
2022/03/06 00:43:41;;;;;;;42.88;21.88;;;3.40;99.90;;;;;;5016528;28;20157;-67
2022/03/06 00:46:07;;;;;;;51.22;24.13;;;3.30;99.90;;;;;;5015724;28;20030;-67
2022/03/06 00:48:33;;;;;;;45.25;22.05;;;3.30;99.90;;;;;;5015818;28;20410;-67
2022/03/06 00:50:59;;;;;;;46.97;22.88;;;3.30;99.90;;;;;;5018401;28;20301;-67
2022/03/06 00:53:25;;;;;;;47.53;22.33;;;3.20;99.90;;;;;;5019840;28;20030;-68
2022/03/06 00:55:51;;;;;;;46.13;21.20;;;3.20;99.90;;;;;;5019053;28;20073;-68
2022/03/06 00:58:17;;;;;;;47.47;22.30;;;3.10;99.90;;;;;;5020001;28;20076;-68
2022/03/06 01:00:46;;;;;;;42.88;21.58;;;3.20;99.90;;;;;;5019086;28;20168;-68
2022/03/06 01:03:18;;;;;;;45.40;21.58;;;3.10;99.90;;;;;;5019644;28;20079;-69
2022/03/06 01:05:44;;;;;;;48.22;21.38;;;3.10;99.90;;;;;;5020272;28;20064;-68
2022/03/06 01:08:11;;;;;;;45.25;22.67;;;3.10;99.90;;;;;;5019570;28;20080;-67
2022/03/06 01:10:38;;;;;;;45.53;23.00;;;3.10;99.90;;;;;;5018889;28;20037;-67
2022/03/06 01:13:06;;;;;;;46.85;22.40;;;3.10;99.90;;;;;;5019486;28;20062;-67
2022/03/06 01:15:32;;;;;;;49.75;22.23;;;3.00;99.90;;;;;;5018756;28;20037;-67
2022/03/06 01:17:58;;;;;;;47.10;22.65;;;3.00;99.90;;;;;;5019322;28;20029;-67
2022/03/06 01:20:24;;;;;;;45.10;22.52;;;3.00;99.90;;;;;;5019436;28;20022;-67
2022/03/06 01:22:51;;;;;;;41.20;21.73;;;3.10;99.90;;;;;;5019309;28;20309;-67
2022/03/06 01:25:17;;;;;;;48.85;23.38;;;3.00;99.90;;;;;;5019491;28;20329;-67
2022/03/06 01:27:43;;;;;;;47.78;21.63;;;3.00;99.90;;;;;;5018529;28;20045;-66
2022/03/06 01:30:11;;;;;;;44.88;21.27;;;3.00;99.90;;;;;;5019148;28;20030;-66
2022/03/06 01:32:38;;;;;;;44.50;22.27;;;3.00;99.90;;;;;;5019539;28;20349;-67
2022/03/06 01:35:05;;;;;;;43.95;21.98;;;2.90;99.90;;;;;;5019069;28;20034;-66
2022/03/06 01:37:32;;;;;;;48.58;23.23;;;2.90;99.90;;;;;;5018170;28;20067;-68
2022/03/06 01:39:57;;;;;;;46.92;20.75;;;2.90;99.90;;;;;;5018123;28;20056;-68
2022/03/06 01:42:23;;;;;;;44.58;21.75;;;2.90;99.90;;;;;;5002061;28;20038;-68
2022/03/06 01:44:50;;;;;;;44.45;21.60;;;2.90;99.90;;;;;;5018887;28;20034;-68
2022/03/06 01:47:42;;;;;;;45.67;21.27;;;2.80;99.90;;;;;;5018173;28;20400;-68
2022/03/06 01:50:19;;;;;;;47.13;21.73;;;2.70;99.90;;;;;;5001787;28;20109;-67
2022/03/06 01:52:47;;;;;;;44.90;21.33;;;2.70;99.90;;;;;;5018296;28;20306;-68
2022/03/06 01:55:15;;;;;;;43.17;20.98;;;2.70;99.90;;;;;;5018107;28;20037;-68
2022/03/06 01:57:42;;;;;;;42.78;20.63;;;2.60;99.90;;;;;;5017924;28;20037;-68
2022/03/06 02:00:12;;;;;;;43.33;20.80;;;2.60;99.90;;;;;;5017955;28;20037;-68
2022/03/06 02:02:38;;;;;;;48.63;21.42;;;2.60;99.90;;;;;;5018681;28;20077;-67
2022/03/06 02:05:05;;;;;;;40.08;20.10;;;2.70;99.90;;;;;;5017775;28;20033;-68
2022/03/06 02:07:31;;;;;;;41.53;20.95;;;2.80;99.90;;;;;;5017765;28;20046;-67
2022/03/06 02:09:57;;;;;;;43.25;21.05;;;2.70;99.90;;;;;;5017762;28;20037;-68
2022/03/06 02:12:24;;;;;;;43.88;20.88;;;2.70;99.90;;;;;;5017656;28;20046;-67
2022/03/06 02:14:58;;;;;;;45.03;20.88;;;2.60;99.90;;;;;;5017636;28;20030;-67
2022/03/06 02:17:25;;;;;;;42.80;20.70;;;2.50;99.90;;;;;;5017492;28;20033;-68
2022/03/06 02:19:59;;;;;;;43.47;21.33;;;2.50;99.90;;;;;;5018253;28;20066;-68
2022/03/06 02:22:28;;;;;;;43.28;20.80;;;2.50;99.90;;;;;;5017445;28;20026;-68
2022/03/06 02:24:55;;;;;;;41.38;20.13;;;2.50;99.90;;;;;;5017388;28;20333;-68
2022/03/06 02:27:21;;;;;;;43.88;20.27;;;2.40;99.90;;;;;;5018142;28;20097;-68
2022/03/06 02:29:48;;;;;;;44.85;21.40;;;2.40;99.90;;;;;;5001122;28;20133;-68
2022/03/06 02:32:17;;;;;;;43.35;20.55;;;2.40;99.90;;;;;;4984841;28;20040;-68
2022/03/06 02:34:45;;;;;;;41.88;20.02;;;2.40;99.90;;;;;;5017112;28;20038;-67
2022/03/06 02:37:12;;;;;;;39.63;20.52;;;2.40;99.90;;;;;;5018349;28;20048;-68
2022/03/06 02:39:38;;;;;;;39.95;19.88;;;2.40;99.90;;;;;;5017157;28;20104;-68
2022/03/06 02:42:04;;;;;;;43.00;20.25;;;2.30;99.90;;;;;;5017805;28;20046;-66
2022/03/06 02:44:31;;;;;;;38.38;19.52;;;2.30;99.90;;;;;;5017384;28;20267;-67
2022/03/06 02:46:57;;;;;;;42.92;20.55;;;2.30;99.90;;;;;;5017786;28;20125;-67
2022/03/06 02:49:23;;;;;;;42.40;20.60;;;2.30;99.90;;;;;;5017689;28;20025;-67
2022/03/06 02:51:49;;;;;;;39.30;19.05;;;2.40;99.90;;;;;;5016976;28;20041;-67
2022/03/06 02:54:17;;;;;;;39.83;19.35;;;2.50;99.90;;;;;;5000508;28;20030;-67
2022/03/06 02:56:49;;;;;;;38.80;19.00;;;2.40;99.90;;;;;;5017048;28;20030;-67
2022/03/06 02:59:16;;;;;;;42.30;19.65;;;2.40;99.90;;;;;;5017508;28;20038;-67
2022/03/06 03:01:42;;;;;;;38.08;19.58;;;2.30;99.90;;;;;;5017138;28;20357;-69
2022/03/06 03:04:09;;;;;;;40.45;19.27;;;2.30;99.90;;;;;;5016799;28;20042;-67
2022/03/06 03:06:35;;;;;;;40.17;19.98;;;2.30;99.90;;;;;;5000540;28;20317;-67
2022/03/06 03:09:04;;;;;;;39.17;19.27;;;2.30;99.90;;;;;;5016735;28;20448;-67
2022/03/06 03:11:31;;;;;;;38.28;18.67;;;2.30;99.90;;;;;;5017462;28;20032;-66
2022/03/06 03:13:58;;;;;;;38.90;18.40;;;2.10;99.90;;;;;;5016118;28;20393;-66
2022/03/06 03:16:24;;;;;;;34.90;18.70;;;2.20;99.90;;;;;;5016840;28;20351;-67
2022/03/06 03:18:49;;;;;;;37.95;18.33;;;2.20;99.90;;;;;;5016636;28;20101;-67
2022/03/06 03:21:15;;;;;;;36.25;18.27;;;2.20;99.90;;;;;;5016389;28;20038;-67
2022/03/06 03:23:41;;;;;;;36.85;17.88;;;2.20;99.90;;;;;;5016408;28;20053;-67
2022/03/06 03:26:07;;;;;;;33.78;17.98;;;2.10;99.90;;;;;;5017212;28;20109;-67
2022/03/06 03:28:33;;;;;;;37.75;18.80;;;2.10;99.90;;;;;;5032896;28;20033;-67
2022/03/06 03:30:59;;;;;;;37.38;18.40;;;2.10;99.90;;;;;;5017090;28;20034;-67
2022/03/06 03:33:25;;;;;;;34.25;17.75;;;2.10;99.90;;;;;;5016341;28;20301;-68
2022/03/06 03:35:50;;;;;;;34.85;17.92;;;2.10;99.90;;;;;;5017040;28;20030;-67
2022/03/06 03:38:16;;;;;;;37.55;18.52;;;2.20;99.90;;;;;;5016953;28;20037;-68
2022/03/06 03:40:42;;;;;;;38.85;19.05;;;2.20;99.90;;;;;;5016878;28;20053;-67
2022/03/06 03:43:08;;;;;;;33.88;18.17;;;2.20;99.90;;;;;;5016959;28;20045;-67
2022/03/06 03:45:34;;;;;;;34.88;17.65;;;2.10;99.90;;;;;;5016288;28;20386;-67
2022/03/06 03:48:00;;;;;;;33.92;17.75;;;2.00;99.90;;;;;;5016140;28;20053;-67
2022/03/06 03:50:26;;;;;;;36.45;18.88;;;2.00;99.90;;;;;;5016193;28;20026;-66
2022/03/06 03:52:51;;;;;;;37.92;19.23;;;1.90;99.90;;;;;;5016202;28;20040;-66
2022/03/06 03:55:18;;;;;;;39.72;18.67;;;2.00;99.90;;;;;;5016889;28;20418;-68
2022/03/06 03:57:44;;;;;;;40.55;18.63;;;2.00;99.90;;;;;;5017012;28;20113;-67
2022/03/06 04:00:11;;;;;;;35.15;18.02;;;2.00;99.90;;;;;;5016818;28;20065;-67
2022/03/06 04:02:36;;;;;;;35.78;18.50;;;2.10;99.90;;;;;;5016901;28;20362;-67
2022/03/06 04:05:03;;;;;;;35.97;17.92;;;2.10;99.90;;;;;;5016837;28;20113;-67
2022/03/06 04:07:29;;;;;;;38.33;18.33;;;2.00;99.90;;;;;;5015997;28;20114;-67
2022/03/06 04:09:55;;;;;;;36.60;17.77;;;1.90;99.90;;;;;;5016734;28;20445;-67
2022/03/06 04:12:21;;;;;;;30.52;16.55;;;1.90;99.90;;;;;;5015944;28;20022;-67
2022/03/06 04:14:47;;;;;;;33.17;17.83;;;1.90;99.90;;;;;;5016495;28;20305;-67
2022/03/06 04:17:12;;;;;;;34.83;18.25;;;1.90;99.90;;;;;;5016539;28;20026;-67
2022/03/06 04:19:38;;;;;;;35.95;17.80;;;1.80;99.90;;;;;;5017167;28;20186;-67
2022/03/06 04:22:04;;;;;;;34.30;17.98;;;1.70;99.90;;;;;;5015822;28;20037;-67
2022/03/06 04:24:30;;;;;;;33.65;17.48;;;1.80;99.90;;;;;;5015725;28;20034;-67
2022/03/06 04:26:56;;;;;;;36.42;18.40;;;1.80;99.90;;;;;;5019446;28;20049;-68
2022/03/06 04:29:21;;;;;;;33.85;17.17;;;1.70;99.90;;;;;;5020327;28;20354;-68
2022/03/06 04:31:47;;;;;;;37.40;17.98;;;1.80;99.90;;;;;;5019568;28;20034;-69
2022/03/06 04:34:14;;;;;;;33.30;17.67;;;1.70;99.90;;;;;;5020174;28;20041;-69
2022/03/06 04:36:40;;;;;;;35.45;17.73;;;1.70;99.90;;;;;;5020206;28;20045;-68
2022/03/06 04:39:05;;;;;;;34.13;17.92;;;1.70;99.90;;;;;;5019849;28;20042;-68
2022/03/06 04:41:31;;;;;;;37.75;17.70;;;1.80;99.90;;;;;;5019502;28;20088;-68
2022/03/06 04:43:58;;;;;;;33.67;17.30;;;1.80;99.90;;;;;;5019374;28;20030;-68
2022/03/06 04:46:24;;;;;;;35.85;18.25;;;1.70;99.90;;;;;;5019975;28;20353;-69
2022/03/06 04:48:51;;;;;;;32.88;17.30;;;1.70;99.90;;;;;;5003046;28;20034;-68
2022/03/06 04:51:17;;;;;;;37.92;18.15;;;1.70;99.90;;;;;;5019956;28;20037;-68
2022/03/06 04:53:43;;;;;;;34.97;17.58;;;1.70;99.90;;;;;;5019182;28;20030;-68
2022/03/06 04:56:09;;;;;;;34.80;16.95;;;1.70;99.90;;;;;;5052220;28;20065;-68
2022/03/06 04:58:35;;;;;;;36.78;17.60;;;1.70;99.90;;;;;;5019773;28;20080;-69
2022/03/06 05:01:02;;;;;;;35.03;17.05;;;1.70;99.90;;;;;;5019749;28;20022;-69
2022/03/06 05:03:29;;;;;;;34.33;17.10;;;1.70;99.90;;;;;;5019007;28;20048;-68
2022/03/06 05:05:55;;;;;;;38.00;18.08;;;1.60;99.90;;;;;;5019691;28;20069;-68
2022/03/06 05:08:21;;;;;;;34.40;17.27;;;1.60;99.90;;;;;;5019508;28;20080;-68
2022/03/06 05:10:46;;;;;;;34.25;17.23;;;1.50;99.90;;;;;;5035761;28;20310;-68
2022/03/06 05:13:13;;;;;;;31.60;16.45;;;1.50;99.90;;;;;;5019534;28;20057;-68
2022/03/06 05:15:38;;;;;;;31.98;16.85;;;1.50;99.90;;;;;;5019533;28;20393;-68
2022/03/06 05:18:04;;;;;;;34.42;17.05;;;1.50;99.90;;;;;;5019630;28;20345;-68
2022/03/06 05:20:30;;;;;;;32.83;17.20;;;1.50;99.90;;;;;;5019402;28;20030;-68
2022/03/06 05:22:56;;;;;;;33.92;16.35;;;1.50;99.90;;;;;;5019347;28;20041;-68
2022/03/06 05:25:22;;;;;;;33.63;17.13;;;1.50;99.90;;;;;;5018698;28;20038;-68
2022/03/06 05:27:48;;;;;;;31.70;16.38;;;1.50;99.90;;;;;;5018653;28;20325;-67
2022/03/06 05:30:14;;;;;;;30.08;16.23;;;1.50;99.90;;;;;;5019324;28;20113;-68
2022/03/06 05:32:40;;;;;;;31.63;16.88;;;1.50;99.90;;;;;;5018466;28;20056;-67
2022/03/06 05:35:07;;;;;;;31.48;16.88;;;1.60;99.90;;;;;;5001906;28;20030;-67
2022/03/06 05:37:33;;;;;;;31.00;16.80;;;1.50;99.90;;;;;;5017884;28;20309;-67
2022/03/06 05:39:59;;;;;;;31.85;17.25;;;1.50;99.90;;;;;;5018090;28;20048;-67
2022/03/06 05:42:25;;;;;;;32.92;17.30;;;1.50;99.90;;;;;;5018942;28;20030;-67
2022/03/06 05:44:51;;;;;;;31.50;16.45;;;1.40;99.90;;;;;;5018394;28;20042;-67
2022/03/06 05:47:17;;;;;;;31.67;16.38;;;1.50;99.90;;;;;;5001800;28;20088;-67
2022/03/06 05:49:43;;;;;;;33.00;17.38;;;1.50;99.90;;;;;;5018175;28;20049;-68
2022/03/06 05:52:09;;;;;;;30.55;16.17;;;1.50;99.90;;;;;;5018762;28;20025;-68
2022/03/06 05:54:35;;;;;;;31.17;16.95;;;1.50;99.90;;;;;;5018377;28;20041;-68
2022/03/06 05:57:00;;;;;;;30.70;16.20;;;1.40;99.90;;;;;;5017964;28;20069;-68
2022/03/06 05:59:26;;;;;;;29.63;16.27;;;1.40;99.90;;;;;;5017954;28;20038;-67
2022/03/06 06:01:52;;;;;;;30.95;16.33;;;1.30;99.90;;;;;;5018267;28;20049;-67
2022/03/06 06:04:18;;;;;;;30.63;16.73;;;1.30;99.90;;;;;;5001580;28;20430;-67
2022/03/06 06:06:44;;;;;;;29.25;15.52;;;1.40;99.90;;;;;;5018576;28;20045;-67
2022/03/06 06:09:10;;;;;;;27.27;15.70;;;1.40;99.90;;;;;;5001470;28;20368;-67
2022/03/06 06:11:36;;;;;;;27.98;15.95;;;1.30;99.90;;;;;;5017689;28;20034;-67
2022/03/06 06:14:03;;;;;;;31.85;15.43;;;1.30;99.90;;;;;;5017671;28;20279;-67
2022/03/06 06:16:30;;;;;;;32.50;16.45;;;1.30;99.90;;;;;;5018869;28;20398;-68
2022/03/06 06:18:56;;;;;;;30.80;16.38;;;1.40;99.90;;;;;;5017641;28;20037;-67
2022/03/06 06:21:22;;;;;;;31.85;17.10;;;1.30;99.90;;;;;;5018185;28;20030;-68
2022/03/06 06:23:48;;;;;;;29.95;16.25;;;1.30;99.90;;;;;;5018363;28;20030;-68
2022/03/06 06:26:14;;;;;;;30.83;16.55;;;1.40;99.90;;;;;;5017374;28;20037;-68
2022/03/06 06:28:40;;;;;;;29.65;15.88;;;1.40;99.90;;;;;;5017770;28;20030;-68
2022/03/06 06:31:06;;;;;;;26.38;15.65;;;1.30;99.90;;;;;;5017291;28;20036;-68
2022/03/06 06:33:33;;;;;;;31.92;16.75;;;1.30;99.90;;;;;;5017347;28;20092;-68
2022/03/06 06:35:58;;;;;;;28.48;16.05;;;1.20;99.90;;;;;;5017655;28;20033;-68
2022/03/06 06:38:24;;;;;;;30.17;16.00;;;1.30;99.90;;;;;;5017181;28;20033;-68
2022/03/06 06:40:51;;;;;;;29.02;16.30;;;1.30;99.90;;;;;;5017756;28;20053;-68
2022/03/06 06:43:18;;;;;;;31.63;16.50;;;1.30;99.90;;;;;;5017101;28;20301;-68
2022/03/06 06:45:45;;;;;;;28.20;15.38;;;1.30;99.90;;;;;;5017812;28;20033;-68
2022/03/06 06:48:10;;;;;;;33.58;15.40;;;1.40;99.90;;;;;;5017099;28;20464;-68
2022/03/06 06:50:36;;;;;;;28.02;15.82;;;1.50;99.90;;;;;;5017776;28;20037;-68
2022/03/06 06:53:02;;;;;;;29.27;16.50;;;1.40;99.90;;;;;;5016890;28;20034;-68
2022/03/06 06:55:28;;;;;;;28.27;16.60;;;1.40;99.90;;;;;;5017688;28;20057;-67
2022/03/06 06:57:54;;;;;;;26.95;14.90;;;1.50;99.90;;;;;;5000526;28;20334;-68
2022/03/06 07:00:20;;;;;;;31.67;15.43;;;1.50;99.90;;;;;;5000494;28;20040;-67
2022/03/06 07:02:46;;;;;;;28.20;16.88;;;1.60;99.90;;;;;;5017425;28;20061;-68
2022/03/06 07:05:13;;;;;;;27.73;15.88;;;1.60;99.90;;;;;;5016748;28;20037;-67
2022/03/06 07:07:39;;;;;;;25.20;15.60;;;1.60;99.90;;;;;;5017633;28;20306;-67
2022/03/06 07:10:05;;;;;;;28.80;15.77;;;1.60;99.90;;;;;;5016650;28;20030;-69
2022/03/06 07:12:39;;;;;;;30.48;15.82;;;1.70;99.90;;;;;;5000246;28;20130;-66
2022/03/06 07:15:06;;;;;;;25.35;15.60;;;1.70;99.90;;;;;;5016628;28;20037;-67
2022/03/06 07:17:31;;;;;;;27.10;15.32;;;1.80;99.90;;;;;;5016524;28;20390;-67
2022/03/06 07:19:57;;;;;;;26.67;15.15;;;1.80;99.90;;;;;;4984045;28;20106;-69
2022/03/06 07:22:23;;;;;;;23.30;14.75;;;1.90;99.90;;;;;;5016353;28;20041;-67
2022/03/06 07:24:49;;;;;;;26.25;15.23;;;1.80;99.90;;;;;;5000710;28;20105;-68
2022/03/06 07:27:15;;;;;;;25.60;15.45;;;1.90;99.90;;;;;;5016397;28;20026;-69
2022/03/06 07:29:40;;;;;;;24.33;14.18;;;2.00;99.90;;;;;;5016219;28;20065;-69
2022/03/06 07:32:06;;;;;;;24.67;14.98;;;2.10;99.90;;;;;;5016981;28;20037;-69
2022/03/06 07:34:32;;;;;;;26.45;15.73;;;2.00;99.90;;;;;;5000066;28;20064;-70
2022/03/06 07:36:59;;;;;;;25.58;15.60;;;2.10;99.90;;;;;;5016184;28;20057;-70
2022/03/06 07:39:24;;;;;;;25.38;15.25;;;2.20;99.90;;;;;;5016379;28;20058;-69
2022/03/06 07:41:50;;;;;;;23.25;15.35;;;2.20;99.90;;;;;;5016139;28;20120;-68
2022/03/06 07:44:16;;;;;;;21.33;13.75;;;2.20;99.90;;;;;;5016141;28;20053;-67
2022/03/06 07:46:42;;;;;;;23.15;14.50;;;2.30;99.90;;;;;;5016746;28;20033;-66
2022/03/06 07:49:08;;;;;;;25.48;15.20;;;2.30;99.90;;;;;;4999705;28;20129;-67
2022/03/06 07:51:33;;;;;;;24.23;14.88;;;2.30;99.90;;;;;;5016036;28;20060;-68
2022/03/06 07:53:59;;;;;;;21.63;14.40;;;2.50;99.90;;;;;;5016874;28;20097;-67
2022/03/06 07:56:25;;;;;;;24.15;15.18;;;2.60;99.90;;;;;;4999972;28;20030;-68
2022/03/06 07:58:51;;;;;;;21.63;14.23;;;2.60;99.90;;;;;;5016660;28;20127;-68
2022/03/06 08:01:17;;;;;;;25.05;15.13;;;2.50;99.90;;;;;;5003910;28;20401;-68
2022/03/06 08:03:43;;;;;;;25.52;14.73;;;2.60;99.90;;;;;;5004100;28;20457;-67
2022/03/06 08:06:09;;;;;;;24.27;14.35;;;2.60;99.90;;;;;;5020833;28;20109;-67
2022/03/06 08:08:35;;;;;;;24.13;14.75;;;2.50;99.90;;;;;;5003682;28;20398;-66
2022/03/06 08:11:01;;;;;;;23.08;14.45;;;2.50;99.90;;;;;;5020157;28;20047;-68
2022/03/06 08:13:26;;;;;;;24.70;14.88;;;2.60;99.90;;;;;;5020914;28;20113;-68
2022/03/06 08:15:52;;;;;;;25.08;14.35;;;2.70;99.90;;;;;;5020697;28;20030;-70
2022/03/06 08:18:18;;;;;;;25.85;14.88;;;2.90;99.90;;;;;;5003686;28;20425;-68
2022/03/06 08:20:44;;;;;;;24.40;14.48;;;3.10;99.90;;;;;;5019855;28;20026;-70
2022/03/06 08:23:10;;;;;;;21.80;14.23;;;3.10;99.90;;;;;;5019787;28;20312;-69
2022/03/06 08:25:36;;;;;;;22.15;14.45;;;3.30;99.90;;;;;;5021075;28;20030;-69
2022/03/06 08:28:02;;;;;;;21.90;13.98;;;3.40;99.90;;;;;;5019779;28;20087;-68
2022/03/06 08:30:28;;;;;;;26.73;14.38;;;3.40;99.90;;;;;;5019930;28;20049;-67
2022/03/06 08:32:54;;;;;;;20.90;13.63;;;3.40;99.90;;;;;;5019643;28;20029;-68
2022/03/06 08:35:19;;;;;;;22.27;14.32;;;3.40;99.90;;;;;;5003173;28;20026;-68
2022/03/06 08:37:45;;;;;;;20.77;13.63;;;3.50;99.90;;;;;;5019603;28;20063;-67
2022/03/06 08:40:11;;;;;;;20.85;13.90;;;3.50;99.90;;;;;;5003133;28;20053;-68
2022/03/06 08:42:37;;;;;;;21.13;14.07;;;3.50;99.90;;;;;;5019473;28;20084;-67
2022/03/06 08:45:03;;;;;;;20.92;14.00;;;3.50;99.90;;;;;;5019456;28;20041;-67
2022/03/06 08:47:29;;;;;;;21.80;13.32;;;3.50;99.90;;;;;;5019371;28;20040;-67
2022/03/06 08:49:55;;;;;;;20.02;13.93;;;3.50;99.90;;;;;;5035901;28;20117;-68
2022/03/06 08:52:20;;;;;;;24.88;14.50;;;3.60;99.90;;;;;;5019974;28;20397;-68
2022/03/06 08:54:46;;;;;;;21.15;13.38;;;3.70;99.90;;;;;;5019301;28;20034;-67
2022/03/06 08:57:13;;;;;;;18.88;12.95;;;3.70;99.90;;;;;;5020137;28;20046;-66
2022/03/06 08:59:38;;;;;;;20.65;13.20;;;3.90;99.90;;;;;;5019159;28;20073;-66
2022/03/06 09:02:04;;;;;;;20.40;13.15;;;4.00;99.90;;;;;;5019800;28;20421;-67
2022/03/06 09:04:33;;;;;;;21.10;13.25;;;4.00;99.90;;;;;;5003253;28;20034;-67
2022/03/06 09:06:59;;;;;;;25.40;13.70;;;4.00;99.90;;;;;;5003112;28;20046;-69
2022/03/06 09:09:25;;;;;;;22.48;14.23;;;4.10;99.90;;;;;;5019649;28;20263;-66
2022/03/06 09:11:51;;;;;;;21.92;14.27;;;4.20;99.90;;;;;;5018047;28;20045;-68
2022/03/06 09:14:17;;;;;;;19.70;12.82;;;4.20;99.90;;;;;;5035367;28;20390;-68
2022/03/06 09:16:42;;;;;;;23.25;13.13;;;4.30;99.90;;;;;;5019631;28;20252;-69
2022/03/06 09:19:08;;;;;;;19.70;13.43;;;4.30;99.90;;;;;;5019506;28;20037;-68
2022/03/06 09:21:34;;;;;;;21.13;13.05;;;4.50;99.90;;;;;;5019746;28;20044;-68
2022/03/06 09:24:00;;;;;;;20.63;13.13;;;4.50;99.90;;;;;;5019464;28;20361;-68
2022/03/06 09:26:26;;;;;;;19.70;13.85;;;4.40;99.90;;;;;;5019358;28;20033;-68
2022/03/06 09:28:52;;;;;;;20.17;13.25;;;4.70;99.90;;;;;;5019107;28;20390;-68
2022/03/06 09:31:18;;;;;;;19.17;13.15;;;4.80;99.90;;;;;;5002494;28;20030;-67
2022/03/06 09:33:43;;;;;;;21.50;13.18;;;4.90;99.90;;;;;;5018591;28;20048;-69
2022/03/06 09:36:09;;;;;;;18.63;12.63;;;5.00;99.90;;;;;;5019058;28;20053;-68
2022/03/06 09:38:35;;;;;;;19.05;12.73;;;5.00;99.90;;;;;;5018955;28;20069;-68
2022/03/06 09:41:04;;;;;;;19.73;12.40;;;5.00;99.90;;;;;;5018426;28;20104;-68
2022/03/06 09:43:32;;;;;;;19.23;11.70;;;4.90;99.90;;;;;;5018354;28;20102;-68
2022/03/06 09:46:04;;;;;;;18.45;12.45;;;5.00;99.90;;;;;;4986283;28;20417;-67
2022/03/06 09:48:30;;;;;;;18.92;12.93;;;5.00;99.90;;;;;;5018047;28;20408;-67
2022/03/06 09:50:56;;;;;;;16.95;11.95;;;5.10;99.90;;;;;;5019016;28;20113;-68
2022/03/06 09:53:22;;;;;;;17.85;12.05;;;5.10;99.90;;;;;;5018790;28;20022;-68
2022/03/06 09:55:48;;;;;;;17.65;12.38;;;5.40;99.90;;;;;;5018801;28;20124;-67
2022/03/06 09:58:14;;;;;;;18.13;11.75;;;5.50;99.90;;;;;;5017958;28;20041;-70
2022/03/06 10:00:41;;;;;;;17.00;11.43;;;5.80;99.90;;;;;;4985510;28;20034;-69
2022/03/06 10:03:15;;;;;;;14.70;11.05;;;5.90;99.90;;;;;;5018795;28;20033;-70
2022/03/06 10:05:41;;;;;;;15.93;11.43;;;6.00;99.90;;;;;;5018605;28;20030;-68
2022/03/06 10:08:20;;;;;;;15.00;10.95;;;6.10;99.90;;;;;;5034142;28;20044;-68
2022/03/06 10:10:49;;;;;;;15.30;11.02;;;6.40;99.90;;;;;;5017886;28;20052;-70
2022/03/06 10:13:18;;;;;;;15.15;10.32;;;6.30;99.90;;;;;;5017986;28;20029;-70
2022/03/06 10:16:07;;;;;;;14.30;10.43;;;6.00;99.90;;;;;;5017780;28;20257;-69
2022/03/06 10:18:35;;;;;;;14.65;10.88;;;6.00;99.90;;;;;;5017659;28;20061;-70
2022/03/06 10:21:13;;;;;;;14.55;10.52;;;6.20;99.90;;;;;;5018315;28;20062;-70
2022/03/06 10:23:40;;;;;;;15.25;11.13;;;6.30;99.90;;;;;;5017708;28;20033;-69
2022/03/06 10:26:14;;;;;;;14.75;10.73;;;6.40;99.90;;;;;;5001160;28;20030;-67
2022/03/06 10:28:45;;;;;;;13.75;10.02;;;6.50;99.90;;;;;;5018136;28;20029;-68
2022/03/06 10:31:12;;;;;;;13.10;10.32;;;6.90;99.90;;;;;;5018195;28;20034;-68
2022/03/06 10:33:38;;;;;;;14.93;9.90;;;7.10;99.90;;;;;;5001081;28;20030;-68
2022/03/06 10:36:07;;;;;;;13.57;10.10;;;7.70;99.90;;;;;;5017376;28;20034;-67
2022/03/06 10:38:35;;;;;;;12.48;9.60;;;8.20;99.90;;;;;;5016946;28;20045;-67
2022/03/06 10:41:02;;;;;;;13.10;8.98;;;9.00;99.90;;;;;;5000832;28;20112;-68
2022/03/06 10:43:30;;;;;;;13.23;9.77;;;9.40;99.90;;;;;;5017981;28;20108;-70
2022/03/06 10:46:05;;;;;;;13.90;9.98;;;9.40;99.90;;;;;;5017872;28;20108;-68
2022/03/06 10:48:31;;;;;;;12.52;9.82;;;9.50;99.90;;;;;;5016940;28;20057;-69
2022/03/06 10:51:05;;;;;;;12.45;9.93;;;8.90;99.90;;;;;;5000843;28;20037;-69
2022/03/06 10:53:31;;;;;;;13.45;9.82;;;9.10;99.90;;;;;;5050333;28;20026;-69
2022/03/06 10:56:12;;;;;;;13.63;9.20;;;9.70;99.90;;;;;;5017021;28;20076;-68
2022/03/06 10:58:44;;;;;;;13.25;9.35;;;9.30;99.90;;;;;;5016898;28;20038;-68
2022/03/06 11:01:10;;;;;;;12.73;9.30;;;9.20;99.90;;;;;;5016988;28;20044;-68
2022/03/06 11:03:37;;;;;;;12.50;9.30;;;9.50;99.90;;;;;;5017534;28;20412;-69
2022/03/06 11:06:04;;;;;;;11.77;9.25;;;9.40;99.90;;;;;;5018113;28;20022;-70
2022/03/06 11:08:31;;;;;;;12.27;8.98;;;9.50;99.90;;;;;;5017269;28;20110;-68
2022/03/06 11:10:59;;;;;;;11.45;8.65;;;10.20;99.90;;;;;;5016705;28;20462;-71
2022/03/06 11:13:27;;;;;;;12.50;9.27;;;10.40;99.90;;;;;;5017249;28;20026;-70
2022/03/06 11:15:53;;;;;;;11.68;9.02;;;10.90;99.90;;;;;;5049652;28;20290;-69
2022/03/06 11:18:19;;;;;;;10.95;9.13;;;11.10;99.90;;;;;;5016912;28;20365;-69
2022/03/06 11:20:46;;;;;;;13.13;9.35;;;11.60;99.90;;;;;;5017228;28;20112;-70
2022/03/06 11:23:31;;;;;;;11.80;9.02;;;12.50;99.90;;;;;;5016322;28;20056;-68
2022/03/06 11:26:08;;;;;;;11.88;9.25;;;12.30;99.90;;;;;;5016249;28;20037;-67
2022/03/06 11:28:43;;;;;;;9.93;8.10;;;13.20;99.90;;;;;;5016929;28;20034;-66
2022/03/06 11:31:13;;;;;;;10.13;8.63;;;12.90;99.90;;;;;;5016247;28;20030;-69
2022/03/06 11:33:56;;;;;;;11.48;9.68;;;12.90;99.90;;;;;;5016013;28;20033;-67
2022/03/06 11:36:25;;;;;;;13.13;9.25;;;11.80;99.90;;;;;;5011311;28;20287;-67
2022/03/06 11:38:52;;;;;;;11.77;8.85;;;12.00;99.90;;;;;;5016019;28;20037;-69
2022/03/06 11:41:19;;;;;;;11.80;9.40;;;12.10;99.90;;;;;;5017559;28;20100;-69
2022/03/06 11:43:49;;;;;;;11.52;9.52;;;12.10;99.90;;;;;;5000801;28;20038;-69
2022/03/06 11:46:24;;;;;;;11.05;9.70;;;13.30;99.90;;;;;;5017262;28;20038;-70
2022/03/06 11:48:50;;;;;;;11.40;9.43;;;14.40;98.90;;;;;;4999585;28;20026;-68
2022/03/06 11:51:22;;;;;;;11.65;9.23;;;14.10;98.20;;;;;;5016881;28;20022;-68
2022/03/06 11:53:52;;;;;;;11.10;9.43;;;14.20;96.60;;;;;;5016105;28;20026;-69
2022/03/06 11:56:39;;;;;;;11.68;9.82;;;14.40;96.00;;;;;;5015992;28;20026;-68
2022/03/06 11:59:17;;;;;;;11.50;9.63;;;15.00;95.30;;;;;;5016619;28;20040;-66
2022/03/06 12:01:46;;;;;;;11.55;9.80;;;15.30;94.80;;;;;;5016104;28;20030;-67
2022/03/06 12:04:14;;;;;;;12.27;9.48;;;14.80;94.20;;;;;;4999816;28;20029;-68
2022/03/06 12:06:42;;;;;;;11.05;9.27;;;15.40;92.80;;;;;;5016073;28;20042;-68
2022/03/06 12:09:21;;;;;;;10.95;9.73;;;16.00;90.70;;;;;;4999507;28;20329;-69
2022/03/06 12:11:48;;;;;;;11.25;9.85;;;14.80;90.60;;;;;;5016191;28;20021;-68
2022/03/06 12:14:20;;;;;;;11.10;9.32;;;14.20;91.00;;;;;;5016071;28;20065;-71
2022/03/06 12:17:01;;;;;;;11.30;9.57;;;13.40;92.00;;;;;;5016417;28;20025;-68
2022/03/06 12:19:45;;;;;;;12.25;9.20;;;13.40;92.40;;;;;;5017033;28;20044;-69
2022/03/06 12:22:20;;;;;;;12.82;10.23;;;13.70;92.00;;;;;;5015769;28;20036;-69
2022/03/06 12:24:48;;;;;;;13.00;9.65;;;13.70;91.50;;;;;;5017119;28;20057;-70
2022/03/06 12:27:18;;;;;;;12.00;9.82;;;13.50;92.20;;;;;;5015944;28;20080;-69
2022/03/06 12:29:47;;;;;;;11.10;9.23;;;15.20;92.00;;;;;;5016421;28;20428;-67
2022/03/06 12:32:25;;;;;;;10.30;9.18;;;16.80;89.90;;;;;;5016773;28;20026;-68
2022/03/06 12:34:56;;;;;;;11.40;9.65;;;17.40;85.20;;;;;;5016613;28;20034;-67
2022/03/06 12:37:38;;;;;;;12.85;10.40;;;18.10;80.50;;;;;;4999913;28;20026;-68
2022/03/06 12:40:10;;;;;;;11.80;9.50;;;16.70;81.80;;;;;;5016517;28;20350;-69